createdAt,value
2018-06-30T00:01:22.567Z,45.50
2018-06-30T00:03:55.801Z,45.60
2018-06-30T00:06:26.128Z,46.70
2018-06-30T00:08:55.002Z,46.30
2018-06-30T00:11:23.531Z,46.40
2018-06-30T00:13:51.933Z,46.00
2018-06-30T00:16:20.491Z,45.80
2018-06-30T00:18:48.699Z,46.20
2018-06-30T00:21:17.553Z,45.90
2018-06-30T00:23:45.764Z,45.80
2018-06-30T00:26:13.981Z,45.90
2018-06-30T00:28:42.141Z,45.70
2018-06-30T00:31:10.459Z,46.00
2018-06-30T00:33:38.607Z,45.80
2018-06-30T00:36:06.879Z,45.80
2018-06-30T00:41:03.431Z,45.60
2018-06-30T00:43:31.647Z,46.10
2018-06-30T00:48:27.792Z,46.10
2018-06-30T00:50:55.917Z,46.60
2018-06-30T00:53:24.174Z,46.00
2018-06-30T00:55:52.376Z,46.50
2018-06-30T00:58:20.520Z,46.20
2018-06-30T01:00:48.665Z,46.80
2018-06-30T01:03:16.991Z,46.20
2018-06-30T01:05:45.138Z,46.60
2018-06-30T01:08:13.317Z,45.90
2018-06-30T01:10:41.541Z,46.50
2018-06-30T01:13:09.706Z,46.10
2018-06-30T01:15:37.832Z,46.70
2018-06-30T01:18:06.877Z,47.00
2018-06-30T01:20:35.077Z,46.90
2018-06-30T01:23:03.389Z,46.60
2018-06-30T01:25:31.590Z,46.90
2018-06-30T01:27:59.732Z,47.30
2018-06-30T01:30:27.875Z,47.00
2018-06-30T01:32:56.069Z,47.40
2018-06-30T01:35:24.207Z,47.10
2018-06-30T01:37:52.336Z,47.70
2018-06-30T01:40:20.686Z,48.00
2018-06-30T01:42:48.886Z,48.00
2018-06-30T01:45:17.204Z,47.50
2018-06-30T01:47:45.367Z,47.70
2018-06-30T01:50:13.598Z,47.50
2018-06-30T01:52:41.936Z,47.80
2018-06-30T01:55:10.129Z,48.20
2018-06-30T01:57:38.351Z,48.10
2018-06-30T02:00:06.542Z,48.00
2018-06-30T02:02:34.843Z,47.70
2018-06-30T02:05:03.039Z,47.60
2018-06-30T02:07:31.379Z,48.20
2018-06-30T02:09:59.788Z,48.60
2018-06-30T02:12:28.042Z,48.00
2018-06-30T02:14:56.152Z,47.70
2018-06-30T02:17:24.412Z,47.90
2018-06-30T02:19:52.652Z,48.30
2018-06-30T02:22:21.148Z,47.60
2018-06-30T02:24:49.307Z,48.20
2018-06-30T02:27:17.504Z,47.90
2018-06-30T02:29:46.249Z,47.70
2018-06-30T02:32:14.441Z,47.60
2018-06-30T02:34:42.618Z,48.10
2018-06-30T02:37:10.811Z,47.70
2018-06-30T02:39:39.055Z,48.00
2018-06-30T02:42:07.405Z,48.10
2018-06-30T02:44:35.671Z,47.40
2018-06-30T02:47:03.847Z,47.90
2018-06-30T02:49:31.977Z,48.20
2018-06-30T02:52:01.407Z,47.50
2018-06-30T02:54:29.667Z,48.00
2018-06-30T02:56:57.860Z,47.60
2018-06-30T02:59:26.181Z,47.60
2018-06-30T03:01:54.387Z,47.40
2018-06-30T03:04:22.563Z,47.40
2018-06-30T03:06:50.851Z,47.40
2018-06-30T03:09:19.035Z,47.50
2018-06-30T03:11:47.283Z,47.40
2018-06-30T03:14:15.535Z,47.40
2018-06-30T03:16:43.696Z,47.60
2018-06-30T03:19:11.964Z,47.40
2018-06-30T03:21:40.193Z,47.50
2018-06-30T03:24:08.357Z,46.90
2018-06-30T03:26:36.488Z,47.30
2018-06-30T03:29:04.636Z,47.30
2018-06-30T03:31:33.473Z,47.50
2018-06-30T03:34:01.612Z,47.50
2018-06-30T03:36:29.872Z,47.00
2018-06-30T03:38:58.157Z,47.10
2018-06-30T03:41:27.041Z,47.10
2018-06-30T03:43:55.164Z,47.20
2018-06-30T03:48:58.072Z,46.80
2018-06-30T03:51:26.244Z,46.90
2018-06-30T03:53:54.789Z,46.90
2018-06-30T03:56:22.958Z,47.00
2018-06-30T03:58:51.812Z,47.20
2018-06-30T04:01:20.069Z,47.10
2018-06-30T04:03:48.429Z,47.40
2018-06-30T04:06:16.652Z,47.30
2018-06-30T04:08:44.847Z,47.10
2018-06-30T04:11:13.046Z,46.80
2018-06-30T04:13:41.328Z,46.70
2018-06-30T04:16:09.552Z,46.40
2018-06-30T04:18:37.964Z,46.50
2018-06-30T04:21:06.113Z,46.70
2018-06-30T04:23:34.399Z,46.90
2018-06-30T04:26:02.612Z,47.30
2018-06-30T04:28:30.814Z,47.60
2018-06-30T04:30:59.085Z,47.00
2018-06-30T04:33:27.322Z,47.10
2018-06-30T04:35:55.650Z,46.70
2018-06-30T04:38:23.808Z,46.40
2018-06-30T04:40:51.968Z,47.00
2018-06-30T04:43:20.163Z,46.40
2018-06-30T04:45:48.374Z,46.00
2018-06-30T04:48:16.841Z,45.40
2018-06-30T04:50:45.130Z,45.30
2018-06-30T04:53:13.438Z,45.60
2018-06-30T04:55:41.536Z,46.90
2018-06-30T04:58:10.015Z,46.10
2018-06-30T05:00:38.168Z,45.70
2018-06-30T05:03:06.314Z,46.20
2018-06-30T05:05:34.482Z,45.90
2018-06-30T05:08:02.584Z,45.80
2018-06-30T05:10:30.880Z,46.10
2018-06-30T05:12:59.158Z,47.20
2018-06-30T05:15:27.382Z,45.90
2018-06-30T05:17:55.772Z,45.80
2018-06-30T05:20:24.095Z,46.20
2018-06-30T05:22:52.289Z,46.50
2018-06-30T05:25:20.655Z,46.50
2018-06-30T05:27:48.811Z,47.00
2018-06-30T05:30:16.984Z,46.60
2018-06-30T05:32:45.568Z,46.50
2018-06-30T05:35:13.719Z,46.50
2018-06-30T05:37:41.889Z,47.30
2018-06-30T05:40:10.234Z,47.20
2018-06-30T05:42:38.370Z,47.40
2018-06-30T05:45:06.625Z,47.30
2018-06-30T05:47:34.786Z,47.30
2018-06-30T05:50:03.011Z,47.70
2018-06-30T05:52:31.273Z,47.00
2018-06-30T05:54:59.487Z,47.70
2018-06-30T05:57:27.785Z,47.20
2018-06-30T05:59:56.063Z,46.70
2018-06-30T06:02:24.251Z,47.30
2018-06-30T06:04:52.453Z,47.20
2018-06-30T06:07:20.771Z,47.20
2018-06-30T06:09:49.040Z,46.60
2018-06-30T06:12:17.325Z,45.60
2018-06-30T06:14:45.489Z,45.40
2018-06-30T06:17:13.639Z,45.10
2018-06-30T06:19:41.848Z,45.00
2018-06-30T06:22:10.128Z,44.20
2018-06-30T06:24:38.293Z,43.80
2018-06-30T06:27:06.440Z,44.10
2018-06-30T06:29:34.780Z,42.20
2018-06-30T06:32:02.902Z,43.00
2018-06-30T06:34:31.078Z,43.70
2018-06-30T06:36:59.649Z,42.20
2018-06-30T06:39:27.793Z,42.70
2018-06-30T06:41:56.011Z,43.10
2018-06-30T06:44:24.555Z,42.40
2018-06-30T06:46:52.937Z,43.10
2018-06-30T06:49:21.072Z,43.90
2018-06-30T06:51:49.259Z,43.20
2018-06-30T06:54:18.108Z,42.40
2018-06-30T06:56:46.289Z,42.50
2018-06-30T07:01:42.697Z,43.10
2018-06-30T07:04:10.852Z,43.30
2018-06-30T07:06:39.118Z,41.90
2018-06-30T07:09:08.890Z,43.50
2018-06-30T07:11:37.247Z,43.00
2018-06-30T07:14:05.411Z,42.50
2018-06-30T07:16:33.645Z,45.50
2018-06-30T07:19:01.865Z,44.90
2018-06-30T07:21:30.087Z,43.80
2018-06-30T07:23:58.376Z,42.30
2018-06-30T07:26:26.541Z,38.10
2018-06-30T07:28:55.012Z,38.40
2018-06-30T07:31:23.399Z,39.50
2018-06-30T07:33:51.799Z,39.80
2018-06-30T07:36:19.986Z,38.70
2018-06-30T07:38:48.328Z,36.30
2018-06-30T07:41:17.003Z,37.10
2018-06-30T07:43:45.328Z,36.80
2018-06-30T07:46:14.026Z,36.80
2018-06-30T07:48:42.371Z,36.20
2018-06-30T07:51:10.753Z,36.30
2018-06-30T07:53:39.233Z,37.00
2018-06-30T07:56:07.547Z,37.20
2018-06-30T07:58:35.742Z,36.50
2018-06-30T08:01:04.665Z,35.60
2018-06-30T08:03:33.055Z,34.70
2018-06-30T08:06:01.501Z,36.10
2018-06-30T08:08:29.856Z,36.40
2018-06-30T08:10:58.046Z,36.00
2018-06-30T08:13:26.227Z,36.10
2018-06-30T08:15:54.735Z,35.70
2018-06-30T08:18:22.935Z,36.30
2018-06-30T08:20:51.083Z,35.90
2018-06-30T08:23:19.385Z,33.90
2018-06-30T08:25:47.612Z,33.50
2018-06-30T08:28:15.813Z,33.90
2018-06-30T08:30:43.945Z,34.30
2018-06-30T08:33:12.514Z,35.40
2018-06-30T08:35:40.856Z,36.90
2018-06-30T08:38:09.061Z,35.60
2018-06-30T08:40:37.286Z,35.90
2018-06-30T08:43:05.520Z,35.30
2018-06-30T08:45:33.872Z,34.70
2018-06-30T08:48:02.070Z,34.80
2018-06-30T08:50:30.349Z,35.00
2018-06-30T08:52:58.572Z,34.50
2018-06-30T08:55:26.751Z,34.70
2018-06-30T08:57:55.177Z,35.00
2018-06-30T09:02:51.198Z,35.40
2018-06-30T09:05:19.586Z,34.60
2018-06-30T09:07:47.841Z,34.00
2018-06-30T09:10:16.110Z,33.80
2018-06-30T09:12:44.336Z,33.80
2018-06-30T09:15:12.613Z,33.70
2018-06-30T09:17:40.887Z,34.40
2018-06-30T09:20:09.230Z,36.20
2018-06-30T09:22:37.510Z,36.00
2018-06-30T09:25:05.785Z,35.70
2018-06-30T09:27:34.038Z,36.60
2018-06-30T09:32:30.283Z,34.20
2018-06-30T09:34:58.441Z,33.10
2018-06-30T09:37:26.670Z,32.70
2018-06-30T09:39:54.856Z,33.40
2018-06-30T09:42:23.186Z,33.90
2018-06-30T09:44:51.352Z,34.30
2018-06-30T09:47:19.667Z,34.30
2018-06-30T09:49:47.949Z,33.10
2018-06-30T09:52:16.206Z,32.40
2018-06-30T09:54:44.490Z,32.20
2018-06-30T09:57:12.649Z,32.30
2018-06-30T09:59:41.019Z,32.20
2018-06-30T10:02:09.202Z,31.90
2018-06-30T10:04:37.506Z,32.80
2018-06-30T10:07:05.881Z,33.30
2018-06-30T10:09:34.037Z,32.30
2018-06-30T10:12:02.148Z,32.30
2018-06-30T10:14:30.355Z,32.50
2018-06-30T10:16:58.680Z,32.20
2018-06-30T10:19:26.901Z,31.40
2018-06-30T10:21:55.561Z,32.50
2018-06-30T10:24:23.776Z,32.70
2018-06-30T10:26:51.950Z,32.20
2018-06-30T10:29:20.201Z,32.20
2018-06-30T10:31:48.466Z,32.00
2018-06-30T10:34:16.680Z,31.50
2018-06-30T10:36:44.988Z,30.10
2018-06-30T10:39:13.433Z,30.40
2018-06-30T10:41:42.140Z,31.20
2018-06-30T10:44:10.294Z,29.70
2018-06-30T10:46:38.525Z,31.00
2018-06-30T10:49:07.823Z,30.70
2018-06-30T10:51:36.023Z,29.40
2018-06-30T10:54:04.391Z,29.50
2018-06-30T10:56:32.579Z,27.50
2018-06-30T10:59:01.358Z,28.20
2018-06-30T11:01:29.493Z,28.80
2018-06-30T11:03:57.806Z,28.70
2018-06-30T11:06:25.913Z,29.00
2018-06-30T11:08:54.058Z,28.60
2018-06-30T11:11:22.549Z,28.20
2018-06-30T11:13:50.712Z,28.00
2018-06-30T11:16:19.573Z,28.60
2018-06-30T11:18:47.923Z,28.80
2018-06-30T11:21:16.369Z,27.70
2018-06-30T11:23:44.607Z,26.80
2018-06-30T11:26:12.764Z,27.50
2018-06-30T11:28:40.956Z,27.70
2018-06-30T11:31:09.212Z,27.60
2018-06-30T11:33:37.517Z,27.80
2018-06-30T11:36:05.876Z,28.30
2018-06-30T11:38:33.990Z,28.40
2018-06-30T11:41:02.283Z,27.60
2018-06-30T11:43:30.586Z,28.00
2018-06-30T11:45:58.758Z,28.60
2018-06-30T11:48:27.113Z,29.50
2018-06-30T11:50:55.371Z,28.20
2018-06-30T11:55:52.410Z,29.00
2018-06-30T11:58:20.595Z,28.30
2018-06-30T12:00:48.934Z,28.40
2018-06-30T12:03:17.766Z,28.90
2018-06-30T12:05:46.061Z,28.70
2018-06-30T12:08:14.755Z,29.30
2018-06-30T12:10:43.060Z,28.30
2018-06-30T12:13:11.220Z,27.90
2018-06-30T12:15:39.655Z,27.20
2018-06-30T12:18:08.386Z,27.50
2018-06-30T12:20:36.563Z,27.10
2018-06-30T12:23:04.808Z,27.90
2018-06-30T12:25:33.147Z,27.30
2018-06-30T12:30:29.282Z,28.10
2018-06-30T12:32:57.418Z,28.00
2018-06-30T12:35:25.624Z,28.60
2018-06-30T12:37:53.824Z,28.70
2018-06-30T12:40:21.959Z,29.00
2018-06-30T12:42:50.117Z,29.40
2018-06-30T12:45:18.304Z,29.90
2018-06-30T12:47:46.473Z,29.50
2018-06-30T12:50:14.646Z,29.60
2018-06-30T12:52:42.819Z,29.40
2018-06-30T12:55:11.143Z,29.50
2018-06-30T12:57:39.501Z,29.50
2018-06-30T13:00:07.755Z,29.00
2018-06-30T13:02:36.115Z,28.40
2018-06-30T13:05:04.847Z,28.00
2018-06-30T13:10:01.131Z,27.10
2018-06-30T13:12:29.924Z,27.30
2018-06-30T13:14:58.299Z,27.70
2018-06-30T13:17:26.572Z,27.20
2018-06-30T13:19:54.695Z,27.40
2018-06-30T13:22:23.037Z,26.90
2018-06-30T13:24:51.285Z,26.70
2018-06-30T13:27:19.807Z,26.50
2018-06-30T13:29:47.975Z,26.20
2018-06-30T13:32:16.174Z,25.80
2018-06-30T13:34:44.371Z,25.70
2018-06-30T13:37:12.755Z,26.40
2018-06-30T13:39:41.146Z,25.90
2018-06-30T13:42:09.307Z,25.70
2018-06-30T13:44:37.702Z,26.50
2018-06-30T13:47:05.885Z,26.50
2018-06-30T13:49:34.067Z,26.70
2018-06-30T13:52:02.408Z,27.50
2018-06-30T13:54:30.589Z,27.40
2018-06-30T13:56:59.032Z,27.90
2018-06-30T13:59:27.735Z,27.80
2018-06-30T14:01:56.144Z,28.00
2018-06-30T14:04:24.293Z,28.60
2018-06-30T14:06:52.565Z,27.80
2018-06-30T14:09:20.694Z,27.50
2018-06-30T14:11:48.898Z,27.50
2018-06-30T14:14:17.113Z,27.30
2018-06-30T14:16:45.421Z,27.30
2018-06-30T14:19:13.644Z,27.40
2018-06-30T14:21:41.802Z,27.50
2018-06-30T14:24:10.730Z,28.10
2018-06-30T14:26:38.970Z,27.80
2018-06-30T14:29:07.126Z,28.10
2018-06-30T14:31:35.268Z,28.60
2018-06-30T14:34:03.593Z,28.60
2018-06-30T14:36:31.772Z,28.80
2018-06-30T14:39:00.047Z,29.50
2018-06-30T14:41:28.488Z,28.80
2018-06-30T14:43:56.838Z,29.40
2018-06-30T14:46:25.003Z,28.70
2018-06-30T14:48:53.145Z,28.80
2018-06-30T14:51:21.296Z,28.80
2018-06-30T14:53:49.478Z,28.90
2018-06-30T14:56:17.834Z,28.90
2018-06-30T14:58:46.029Z,28.80
2018-06-30T15:01:14.419Z,29.10
2018-06-30T15:03:42.608Z,29.10
2018-06-30T15:06:10.786Z,29.00
2018-06-30T15:08:39.560Z,28.70
2018-06-30T15:11:07.755Z,28.40
2018-06-30T15:13:35.992Z,28.40
2018-06-30T15:16:04.168Z,28.20
2018-06-30T15:18:32.373Z,28.20
2018-06-30T15:21:00.516Z,28.20
2018-06-30T15:23:28.836Z,28.20
2018-06-30T15:25:57.148Z,28.80
2018-06-30T15:28:25.380Z,28.30
2018-06-30T15:30:53.733Z,28.30
2018-06-30T15:33:21.943Z,28.70
2018-06-30T15:35:50.207Z,28.30
2018-06-30T15:40:46.269Z,28.60
2018-06-30T15:43:14.444Z,28.40
2018-06-30T15:45:49.096Z,28.40
2018-06-30T15:48:17.243Z,28.40
2018-06-30T15:50:45.406Z,28.50
2018-06-30T15:53:13.630Z,28.70
2018-06-30T15:55:41.815Z,28.60
2018-06-30T15:58:10.142Z,29.00
2018-06-30T16:00:38.368Z,29.40
2018-06-30T16:03:07.283Z,29.20
2018-06-30T16:05:35.618Z,28.70
2018-06-30T16:08:03.809Z,29.00
2018-06-30T16:10:32.049Z,29.20
2018-06-30T16:13:00.218Z,29.50
2018-06-30T16:15:28.368Z,29.50
2018-06-30T16:17:56.624Z,29.70
2018-06-30T16:20:24.793Z,29.50
2018-06-30T16:22:53.401Z,29.30
2018-06-30T16:25:21.605Z,29.40
2018-06-30T16:27:49.744Z,29.80
2018-06-30T16:30:18.058Z,29.70
2018-06-30T16:32:46.120Z,29.60
2018-06-30T16:35:14.256Z,29.50
2018-06-30T16:37:42.428Z,29.50
2018-06-30T16:40:10.579Z,29.70
2018-06-30T16:42:38.748Z,30.00
2018-06-30T16:45:07.026Z,29.80
2018-06-30T16:47:35.163Z,30.00
2018-06-30T16:50:03.334Z,29.90
2018-06-30T16:52:31.765Z,30.00
2018-06-30T16:55:00.390Z,29.90
2018-06-30T16:57:28.691Z,29.60
2018-06-30T16:59:56.955Z,29.30
2018-06-30T17:02:25.245Z,29.80
2018-06-30T17:04:53.410Z,29.60
2018-06-30T17:07:21.581Z,29.90
2018-06-30T17:09:49.987Z,29.50
2018-06-30T17:12:18.320Z,29.60
2018-06-30T17:14:46.477Z,30.00
2018-06-30T17:17:14.651Z,30.10
2018-06-30T17:19:42.891Z,29.90
2018-06-30T17:22:11.102Z,30.00
2018-06-30T17:24:39.350Z,29.40
2018-06-30T17:27:07.502Z,29.70
2018-06-30T17:29:35.669Z,29.80
2018-06-30T17:32:03.811Z,30.00
2018-06-30T17:34:31.982Z,29.80
2018-06-30T17:37:00.222Z,30.10
2018-06-30T17:39:28.435Z,29.90
2018-06-30T17:41:56.715Z,30.70
2018-06-30T17:44:24.920Z,30.00
2018-06-30T17:46:53.262Z,29.50
2018-06-30T17:49:21.460Z,30.00
2018-06-30T17:51:49.616Z,30.50
2018-06-30T17:54:17.944Z,30.00
2018-06-30T17:56:46.279Z,29.40
2018-06-30T17:59:14.449Z,29.60
2018-06-30T18:01:42.714Z,29.50
2018-06-30T18:04:10.918Z,29.50
2018-06-30T18:06:39.214Z,30.60
2018-06-30T18:11:36.273Z,30.60
2018-06-30T18:14:05.085Z,30.00
2018-06-30T18:16:33.316Z,30.20
2018-06-30T18:19:01.517Z,30.70
2018-06-30T18:21:29.640Z,31.10
2018-06-30T18:23:58.025Z,30.60
2018-06-30T18:26:26.182Z,30.40
2018-06-30T18:28:54.529Z,31.30
2018-06-30T18:31:22.764Z,30.60
2018-06-30T18:33:51.131Z,31.30
2018-06-30T18:36:19.329Z,31.40
2018-06-30T18:38:47.537Z,30.70
2018-06-30T18:41:15.769Z,30.30
2018-06-30T18:46:12.252Z,31.30
2018-06-30T18:48:40.401Z,32.20
2018-06-30T18:51:08.692Z,32.50
2018-06-30T18:53:36.925Z,32.30
2018-06-30T18:56:05.087Z,32.10
2018-06-30T18:58:33.382Z,32.60
2018-06-30T19:01:01.646Z,32.80
2018-06-30T19:03:29.915Z,33.90
2018-06-30T19:05:58.141Z,34.10
2018-06-30T19:08:26.333Z,34.10
2018-06-30T19:10:54.633Z,34.30
2018-06-30T19:13:23.493Z,34.30
2018-06-30T19:15:51.795Z,35.00
2018-06-30T19:18:19.998Z,34.80
2018-06-30T19:20:48.179Z,35.00
2018-06-30T19:23:17.150Z,35.30
2018-06-30T19:25:46.199Z,34.70
2018-06-30T19:28:14.474Z,34.50
2018-06-30T19:30:42.625Z,35.00
2018-06-30T19:33:11.008Z,35.10
2018-06-30T19:35:39.205Z,34.60
2018-06-30T19:38:07.440Z,35.20
2018-06-30T19:40:35.625Z,34.90
2018-06-30T19:43:03.833Z,35.20
2018-06-30T19:45:33.059Z,35.40
2018-06-30T19:48:01.633Z,34.80
2018-06-30T19:50:30.127Z,35.40
2018-06-30T19:52:58.719Z,35.10
2018-06-30T19:55:26.916Z,34.90
2018-06-30T19:57:55.166Z,36.00
2018-06-30T20:00:23.409Z,34.90
2018-06-30T20:02:51.784Z,34.80
2018-06-30T20:05:20.048Z,35.30
2018-06-30T20:07:53.253Z,35.50
2018-06-30T20:10:22.270Z,35.80
2018-06-30T20:12:50.721Z,35.40
2018-06-30T20:15:19.003Z,35.30
2018-06-30T20:17:47.209Z,35.40
2018-06-30T20:20:15.447Z,35.40
2018-06-30T20:22:43.651Z,41.70
2018-06-30T20:25:11.878Z,42.20
2018-06-30T20:27:40.100Z,40.80
2018-06-30T20:30:08.411Z,39.80
2018-06-30T20:32:36.626Z,36.70
2018-06-30T20:35:04.846Z,38.70
2018-06-30T20:37:33.138Z,38.00
2018-06-30T20:40:01.307Z,37.70
2018-06-30T20:42:29.689Z,36.90
2018-06-30T20:44:57.938Z,36.50
2018-06-30T20:47:26.160Z,36.40
2018-06-30T20:52:22.573Z,36.10
2018-06-30T20:54:50.920Z,35.70
2018-06-30T20:57:19.104Z,35.30
2018-06-30T20:59:47.313Z,35.30
2018-06-30T21:02:15.534Z,35.10
2018-06-30T21:04:43.854Z,35.10
2018-06-30T21:07:12.627Z,34.70
2018-06-30T21:09:41.716Z,35.50
2018-06-30T21:12:09.864Z,35.90
2018-06-30T21:14:38.019Z,36.00
2018-06-30T21:17:06.158Z,35.30
2018-06-30T21:19:34.347Z,36.30
2018-06-30T21:22:02.449Z,36.20
2018-06-30T21:24:30.658Z,35.30
2018-06-30T21:26:59.924Z,35.00
2018-06-30T21:29:28.135Z,34.80
2018-06-30T21:31:56.498Z,35.10
2018-06-30T21:34:24.625Z,35.10
2018-06-30T21:36:52.967Z,35.20
2018-06-30T21:39:21.291Z,35.30
2018-06-30T21:41:49.589Z,35.30
2018-06-30T21:44:17.745Z,35.30
2018-06-30T21:46:46.011Z,35.30
2018-06-30T21:49:14.211Z,35.50
2018-06-30T21:51:42.494Z,35.60
2018-06-30T21:54:10.800Z,35.40
2018-06-30T21:56:38.989Z,35.60
2018-06-30T21:59:07.165Z,35.60
2018-06-30T22:01:35.340Z,35.60
2018-06-30T22:04:03.600Z,35.80
2018-06-30T22:06:31.932Z,35.90
2018-06-30T22:09:00.335Z,36.30
2018-06-30T22:11:28.628Z,35.80
2018-06-30T22:13:56.696Z,36.70
2018-06-30T22:16:24.864Z,36.90
2018-06-30T22:18:54.188Z,36.30
2018-06-30T22:21:22.339Z,36.90
2018-06-30T22:23:50.687Z,37.10
2018-06-30T22:26:18.846Z,37.10
2018-06-30T22:28:47.043Z,37.20
2018-06-30T22:31:15.469Z,37.10
2018-06-30T22:33:43.611Z,37.70
2018-06-30T22:36:11.792Z,37.40
2018-06-30T22:38:40.298Z,37.80
2018-06-30T22:41:08.456Z,38.00
2018-06-30T22:43:37.399Z,38.20
2018-06-30T22:46:05.911Z,37.70
2018-06-30T22:48:34.070Z,38.30
2018-06-30T22:51:02.908Z,37.90
2018-06-30T22:53:31.392Z,38.70
2018-06-30T22:55:59.629Z,38.30
2018-06-30T22:58:27.863Z,38.10
2018-06-30T23:00:56.053Z,37.90
2018-06-30T23:03:24.200Z,38.00
2018-06-30T23:05:52.384Z,38.20
2018-06-30T23:08:20.488Z,38.60
2018-06-30T23:10:48.669Z,39.10
2018-06-30T23:13:16.828Z,38.80
2018-06-30T23:15:44.957Z,38.60
2018-06-30T23:18:13.209Z,38.70
2018-06-30T23:20:41.304Z,38.50
2018-06-30T23:23:10.415Z,38.50
2018-06-30T23:25:40.100Z,38.60
2018-06-30T23:28:08.955Z,38.90
2018-06-30T23:30:37.085Z,39.30
2018-06-30T23:33:05.237Z,39.10
2018-06-30T23:35:34.102Z,39.50
2018-06-30T23:38:03.001Z,39.30
2018-06-30T23:40:31.160Z,39.30
2018-06-30T23:45:27.425Z,39.90
2018-06-30T23:47:55.551Z,39.50
2018-06-30T23:50:23.712Z,39.70
2018-06-30T23:52:52.263Z,39.90
2018-06-30T23:55:20.420Z,40.60
2018-06-30T23:57:48.769Z,41.10
